Terminal Aerodrome Forecast
Issued by NWS

Current Version | Previous Version | Text Only | Print | Product List | Glossary On
Versions: 1 2 3 4 5 6 7 8 9 10 11 12 13 14
000
FTUS45 KRIW 282027 AAA
TAFJAC
TAF AMD
KJAC 282027Z 2820/2918 08007KT P6SM VCSH SCT070 BKN100
      TEMPO 2821/2824 22015G23KT 5SM -TSRA SCT050CB BKN070
     FM290300 VRB10G15KT P6SM VCSH SCT050 BKN070
     FM290600 35007KT P6SM SCT060 BKN100
     FM291400 32008KT P6SM VCSH SCT040 BKN070
      AMD LTD TO CLD VIS AND WIND=

USA.gov is the U.S. government's official web portal to all federal, state and local government web resources and services.